Time;durP1;ratioP1;P1;durP2;ratioP2;P2;SDS_P1;SDS_P2;PMS_P1;PMS_P2;Temp;Humidity;BMP_temperature;BMP_pressure;BME280_temperature;BME280_humidity;BME280_pressure;Samples;Min_cycle;Max_cycle;Signal;HPM_P1;HPM_P2
2021/09/28 00:01:33;;;;;;;10.85;4.85;;;;;;;9.29;97.62;144541.50;1835059;77;22124;-64
2021/09/28 00:04:28;;;;;;;9.90;5.00;;;;;;;9.28;97.76;144537.72;1853526;77;22621;-66
2021/09/28 00:07:04;;;;;;;12.40;5.08;;;;;;;9.24;98.01;144528.97;1835011;77;22124;-62
2021/09/28 00:09:58;;;;;;;8.38;4.92;;;;;;;9.19;98.17;144516.45;1853649;77;22124;-69
2021/09/28 00:12:53;;;;;;;11.20;5.37;;;;;;;9.14;98.43;144503.92;1853598;77;22603;-62
2021/09/28 00:15:28;;;;;;;11.00;5.12;;;;;;;9.10;98.78;144493.88;1835004;77;22136;-61
2021/09/28 00:18:03;;;;;;;11.75;5.60;;;;;;;9.06;98.92;144483.88;1835143;77;22128;-68
2021/09/28 00:20:39;;;;;;;11.65;5.55;;;;;;;9.03;99.12;144477.63;1835054;77;22181;-61
2021/09/28 00:23:15;;;;;;;8.83;5.55;;;;;;;9.00;99.40;144468.83;1834860;77;22155;-66
2021/09/28 00:25:50;;;;;;;8.18;5.33;;;;;;;8.97;99.65;144461.31;1835025;77;22120;-61
2021/09/28 00:28:44;;;;;;;8.60;5.80;;;;;;;8.93;99.90;144451.28;1853558;77;22163;-65
2021/09/28 00:31:19;;;;;;;8.55;5.78;;;;;;;8.91;100.00;144447.55;1854133;77;22123;-64
2021/09/28 00:34:13;;;;;;;10.10;5.60;;;;;;;8.89;100.00;144443.78;1835505;77;22136;-59
2021/09/28 00:37:08;;;;;;;12.00;4.95;;;;;;;8.85;100.00;144432.50;1853780;77;22135;-62
2021/09/28 00:40:01;;;;;;;14.73;6.28;;;;;;;8.83;100.00;144428.77;1835011;77;22136;-63
2021/09/28 00:42:36;;;;;;;9.08;5.00;;;;;;;8.79;100.00;144418.72;1853669;77;22159;-63
2021/09/28 00:45:30;;;;;;;10.15;5.10;;;;;;;8.78;100.00;144416.25;1835045;77;22591;-60
2021/09/28 00:48:05;;;;;;;12.53;5.97;;;;;;;8.76;100.00;144411.22;1853669;77;22124;-59
2021/09/28 00:50:46;;;;;;;7.85;5.50;;;;;;;8.75;100.00;144407.45;1834192;77;22177;-65
2021/09/28 00:53:41;;;;;;;9.70;5.03;;;;;;;8.71;100.00;144397.45;1835025;77;22125;-63
2021/09/28 00:56:36;;;;;;;8.88;4.85;;;;;;;8.68;100.00;144391.19;1834928;77;22217;-65
2021/09/28 00:59:18;;;;;;;10.63;5.50;;;;;;;8.65;100.00;144383.64;1853520;77;22573;-64
2021/09/28 01:01:53;;;;;;;8.90;5.60;;;;;;;8.64;100.00;144381.16;1819410;77;28002;-62
2021/09/28 01:04:46;;;;;;;11.22;5.17;;;;;;;8.68;100.00;144391.19;1853512;77;22132;-66
2021/09/28 01:07:21;;;;;;;9.83;5.17;;;;;;;8.64;100.00;144381.16;1834996;77;22124;-64
2021/09/28 01:10:15;;;;;;;7.53;5.12;;;;;;;8.63;100.00;144378.67;1835007;77;22129;-65
2021/09/28 01:12:50;;;;;;;9.40;5.25;;;;;;;8.61;100.00;144373.66;1853545;77;22543;-66
2021/09/28 01:16:02;;;;;;;9.45;5.42;;;;;;;8.59;100.00;144368.64;1834949;77;22555;-68
2021/09/28 01:18:53;;;;;;;9.83;6.00;;;;;;;8.57;100.00;144363.63;1879484;75;22104;-61
2021/09/28 01:21:47;;;;;;;7.72;4.80;;;;;;;8.52;100.00;144352.34;1853562;77;22131;-64
2021/09/28 01:24:43;;;;;;;10.20;4.83;;;;;;;8.48;100.00;144343.59;1834951;77;22165;-62
2021/09/28 01:27:18;;;;;;;9.90;5.55;;;;;;;8.45;100.00;144336.09;1834971;77;22556;-65
2021/09/28 01:30:12;;;;;;;11.20;6.30;;;;;;;8.44;100.00;144333.56;1853505;77;22152;-60
2021/09/28 01:32:47;;;;;;;8.60;5.42;;;;;;;8.43;100.00;144329.83;1837847;77;28015;-62
2021/09/28 01:35:22;;;;;;;7.20;4.83;;;;;;;8.47;100.00;144341.11;1815896;79;22151;-63
2021/09/28 01:38:15;;;;;;;13.55;5.40;;;;;;;8.46;100.00;144338.58;1853551;77;22124;-61
2021/09/28 01:40:50;;;;;;;16.67;5.65;;;;;;;8.44;100.00;144332.31;1853540;77;22172;-62
2021/09/28 01:43:25;;;;;;;9.95;5.78;;;;;;;8.41;100.00;144326.06;1834982;77;22125;-65
2021/09/28 01:46:03;;;;;;;9.45;5.72;;;;;;;8.39;100.00;144321.05;1819327;77;28404;-62
2021/09/28 01:49:19;;;;;;;10.63;5.67;;;;;;;8.41;100.00;144326.06;1835604;77;22254;-62
2021/09/28 01:51:54;;;;;;;8.78;5.42;;;;;;;8.37;100.00;144314.73;1853559;77;22124;-65
2021/09/28 01:54:29;;;;;;;8.75;5.47;;;;;;;8.32;100.00;144303.50;1853561;77;22135;-62
2021/09/28 01:57:06;;;;;;;9.93;5.70;;;;;;;8.31;100.00;144300.97;1834959;77;22543;-64
2021/09/28 01:59:40;;;;;;;10.25;6.58;;;;;;;8.29;100.00;144295.95;1835064;77;20218;-61
2021/09/28 02:02:21;;;;;;;9.33;6.55;;;;;;;8.27;100.00;144290.98;1853491;77;22205;-61
2021/09/28 02:04:57;;;;;;;12.07;6.55;;;;;;;8.23;100.00;144280.95;1837786;77;28410;-60
2021/09/28 02:07:34;;;;;;;14.30;7.35;;;;;;;8.25;100.00;144285.97;1835103;77;22125;-63
2021/09/28 02:10:16;;;;;;;15.08;6.97;;;;;;;8.23;100.00;144280.95;1834126;77;22614;-60
2021/09/28 02:13:11;;;;;;;9.20;6.42;;;;;;;8.22;100.00;144279.70;1834882;77;22133;-61
2021/09/28 02:15:46;;;;;;;10.98;6.45;;;;;;;8.19;100.00;144272.20;1835133;77;22152;-63
2021/09/28 02:18:21;;;;;;;11.80;7.33;;;;;;;8.20;100.00;144273.45;1834989;77;22129;-61
2021/09/28 02:20:55;;;;;;;10.93;6.55;;;;;;;8.19;100.00;144270.92;1835012;77;22125;-63
2021/09/28 02:23:30;;;;;;;14.93;6.85;;;;;;;8.15;100.00;144260.94;1834981;77;22572;-68
2021/09/28 02:26:08;;;;;;;13.65;6.75;;;;;;;8.13;100.00;144255.92;1834986;77;22543;-62
2021/09/28 02:28:43;;;;;;;13.48;7.17;;;;;;;8.08;100.00;144243.41;1835009;77;22539;-62
2021/09/28 02:31:38;;;;;;;13.25;7.55;;;;;;;8.06;100.00;144239.62;1853575;77;22132;-65
2021/09/28 02:34:12;;;;;;;11.80;7.12;;;;;;;8.04;100.00;144235.91;1853543;77;22203;-64
2021/09/28 02:37:08;;;;;;;13.10;7.62;;;;;;;8.03;100.00;144232.13;1853500;77;22143;-64
2021/09/28 02:39:43;;;;;;;11.22;7.20;;;;;;;8.02;100.00;144229.64;1879486;76;22192;-66
2021/09/28 02:42:37;;;;;;;10.55;7.08;;;;;;;8.03;100.00;144232.13;1853521;77;22120;-60
2021/09/28 02:45:12;;;;;;;10.23;7.03;;;;;;;8.00;100.00;144224.63;1835004;77;22124;-68
2021/09/28 02:48:06;;;;;;;10.75;6.90;;;;;;;7.96;100.00;144215.89;1834979;77;22129;-67
2021/09/28 02:50:41;;;;;;;15.63;7.08;;;;;;;7.92;100.00;144205.86;1835106;77;22152;-63
2021/09/28 02:53:15;;;;;;;15.93;7.83;;;;;;;7.90;100.00;144200.84;1834991;77;22132;-62
2021/09/28 02:55:50;;;;;;;9.63;6.53;;;;;;;7.87;100.00;144193.34;1835024;77;22129;-61
2021/09/28 02:58:25;;;;;;;13.10;6.42;;;;;;;7.85;100.00;144187.08;1800775;79;22172;-61
2021/09/28 03:01:19;;;;;;;10.85;6.92;;;;;;;7.82;100.00;144180.83;1853538;77;22159;-59
2021/09/28 03:03:54;;;;;;;11.65;7.30;;;;;;;7.79;100.00;144173.33;1853563;77;22555;-65
2021/09/28 03:06:29;;;;;;;10.68;7.20;;;;;;;7.79;100.00;144173.33;1834981;77;22551;-65
2021/09/28 03:09:04;;;;;;;14.65;7.08;;;;;;;7.74;100.00;144160.81;1853540;77;22124;-63
2021/09/28 03:11:39;;;;;;;10.43;6.53;;;;;;;7.71;100.00;144153.27;1853559;77;22570;-64
2021/09/28 03:14:14;;;;;;;11.22;7.08;;;;;;;7.66;100.00;144142.05;1834960;77;22164;-66
2021/09/28 03:16:50;;;;;;;12.30;6.87;;;;;;;7.64;100.00;144137.03;1853534;77;22136;-63
2021/09/28 03:19:44;;;;;;;10.35;6.70;;;;;;;7.61;100.00;144130.78;1835065;77;22132;-62
2021/09/28 03:22:19;;;;;;;11.85;7.00;;;;;;;7.63;100.00;144133.25;1834999;77;22585;-61
2021/09/28 03:24:54;;;;;;;9.30;7.20;;;;;;;7.65;100.00;144139.52;1835025;77;22124;-63
2021/09/28 03:27:28;;;;;;;11.88;6.92;;;;;;;7.67;100.00;144143.28;1835075;77;22547;-65
2021/09/28 03:30:05;;;;;;;12.30;7.67;;;;;;;7.70;100.00;144150.78;1834952;77;22205;-63
2021/09/28 03:33:05;;;;;;;16.40;7.85;;;;;;;7.72;100.00;144157.05;1834136;77;22147;-65
2021/09/28 03:35:40;;;;;;;13.25;7.87;;;;;;;7.73;100.00;144159.53;1819381;77;27990;-63
2021/09/28 03:38:15;;;;;;;14.40;8.35;;;;;;;7.79;100.00;144173.33;1834984;77;22132;-61
2021/09/28 03:41:09;;;;;;;10.75;7.40;;;;;;;7.80;100.00;144175.81;1853501;77;22135;-61
2021/09/28 03:44:02;;;;;;;12.93;8.13;;;;;;;7.80;100.00;144177.05;1834968;77;22547;-60
2021/09/28 03:46:37;;;;;;;16.30;9.20;;;;;;;7.79;100.00;144173.33;1834974;77;22129;-62
2021/09/28 03:49:12;;;;;;;14.98;8.90;;;;;;;7.80;100.00;144175.81;1834997;77;22128;-60
2021/09/28 03:51:47;;;;;;;14.23;8.00;;;;;;;7.80;100.00;144177.05;1853571;77;22131;-64
2021/09/28 03:54:22;;;;;;;18.02;8.83;;;;;;;7.83;100.00;144183.31;1834998;77;22215;-68
2021/09/28 03:57:15;;;;;;;15.98;8.65;;;;;;;7.85;100.00;144187.08;1853480;77;22139;-64
2021/09/28 03:59:50;;;;;;;14.90;9.03;;;;;;;7.83;100.00;144183.31;1834934;77;22147;-61
2021/09/28 04:02:25;;;;;;;14.15;8.28;;;;;;;7.83;100.00;144184.55;1853327;77;22164;-63
2021/09/28 04:04:59;;;;;;;14.78;9.25;;;;;;;7.81;100.00;144178.30;1834999;77;22156;-59
2021/09/28 04:07:37;;;;;;;13.10;9.18;;;;;;;7.80;100.00;144175.81;1853491;77;22159;-68
2021/09/28 04:10:19;;;;;;;13.80;10.20;;;;;;;7.79;100.00;144173.33;1853510;77;22150;-60
2021/09/28 04:13:12;;;;;;;15.25;9.10;;;;;;;7.79;100.00;144173.33;1835567;77;22133;-66
2021/09/28 04:15:53;;;;;;;16.73;9.13;;;;;;;7.78;100.00;144170.80;1834566;77;22606;-58
2021/09/28 04:18:29;;;;;;;14.15;9.30;;;;;;;7.79;100.00;144173.33;1835059;77;28037;-66
2021/09/28 04:21:03;;;;;;;16.25;9.50;;;;;;;7.86;100.00;144190.86;1817093;77;22176;-66
2021/09/28 04:23:58;;;;;;;16.48;8.95;;;;;;;7.90;100.00;144199.59;1817002;77;22231;-61
2021/09/28 04:26:34;;;;;;;16.30;8.58;;;;;;;7.94;100.00;144210.87;1830981;77;22163;-76
2021/09/28 04:29:28;;;;;;;15.35;9.15;;;;;;;8.00;100.00;144225.88;1835087;77;22136;-61
2021/09/28 04:32:05;;;;;;;14.73;8.33;;;;;;;8.04;100.00;144234.66;1820712;77;22250;-64
2021/09/28 04:35:00;;;;;;;19.32;10.05;;;;;;;8.10;100.00;144248.41;1819974;77;22232;-56
2021/09/28 04:37:35;;;;;;;14.87;9.50;;;;;;;8.13;100.00;144257.16;1823168;77;22563;-62
2021/09/28 04:40:12;;;;;;;16.97;9.58;;;;;;;8.19;100.00;144270.92;1853488;77;22131;-63
2021/09/28 04:43:06;;;;;;;13.43;9.40;;;;;;;8.23;100.00;144282.19;1834869;77;22133;-65
2021/09/28 04:45:42;;;;;;;13.13;8.95;;;;;;;8.29;100.00;144294.72;1834922;77;22151;-64
2021/09/28 04:48:35;;;;;;;17.42;9.28;;;;;;;8.32;100.00;144303.50;1800809;79;22242;-59
2021/09/28 04:51:10;;;;;;;15.13;8.43;;;;;;;8.36;100.00;144313.48;1835003;77;22136;-61
2021/09/28 04:53:52;;;;;;;13.10;8.35;;;;;;;8.41;100.00;144326.06;1834140;77;22160;-65
2021/09/28 04:56:46;;;;;;;15.32;8.80;;;;;;;8.45;100.00;144336.09;1835165;77;22132;-61
2021/09/28 04:59:39;;;;;;;16.37;9.08;;;;;;;8.57;100.00;144363.63;1835001;77;22140;-64
2021/09/28 05:02:14;;;;;;;14.13;9.18;;;;;;;8.66;100.00;144387.42;1834990;77;22132;-66
2021/09/28 05:05:09;;;;;;;13.80;7.78;;;;;;;8.81;100.00;144423.75;1853522;77;22160;-67
2021/09/28 05:08:03;;;;;;;11.85;7.97;;;;;;;8.88;100.00;144440.05;1853445;77;22562;-65
2021/09/28 05:10:44;;;;;;;13.50;8.13;;;;;;;8.87;100.00;144437.52;1818842;77;22252;-62
2021/09/28 05:13:40;;;;;;;20.40;9.30;;;;;;;8.88;100.00;144440.05;1818983;77;22169;-67
2021/09/28 05:16:34;;;;;;;14.65;9.65;;;;;;;8.91;100.00;144448.80;1819289;77;27962;-62
2021/09/28 05:19:09;;;;;;;14.73;8.80;;;;;;;9.01;100.00;144471.36;1820267;77;22163;-63
2021/09/28 05:22:08;;;;;;;16.87;8.93;;;;;;;9.07;100.00;144486.38;1833774;77;22213;-60
2021/09/28 05:24:49;;;;;;;15.40;8.20;;;;;;;9.12;100.00;144498.91;1811419;77;22335;-63
2021/09/28 05:27:24;;;;;;;18.70;9.35;;;;;;;9.20;99.93;144518.94;1883148;76;23317;-60
2021/09/28 05:30:00;;;;;;;14.10;9.05;;;;;;;9.28;99.40;144538.97;1853268;77;22176;-68
2021/09/28 05:32:35;;;;;;;14.55;9.15;;;;;;;9.35;99.05;144556.52;1834915;77;22208;-57
2021/09/28 05:35:11;;;;;;;19.02;8.75;;;;;;;9.44;98.72;144576.56;1853544;77;22124;-62
2021/09/28 05:37:47;;;;;;;15.18;9.18;;;;;;;9.51;98.09;144595.36;1834801;77;22282;-63
2021/09/28 05:40:22;;;;;;;17.35;10.50;;;;;;;9.51;97.54;144594.11;1835061;77;22551;-62
2021/09/28 05:42:57;;;;;;;15.88;9.55;;;;;;;9.63;97.69;144622.95;1835083;77;22124;-65
2021/09/28 05:45:57;;;;;;;19.92;9.35;;;;;;;9.84;97.43;144674.33;1833990;77;22510;-64
2021/09/28 05:48:32;;;;;;;17.55;8.80;;;;;;;10.03;96.82;144721.98;1853535;77;22128;-64
2021/09/28 05:51:15;;;;;;;13.93;9.03;;;;;;;10.29;96.36;144784.72;1834960;77;22206;-65
2021/09/28 05:54:09;;;;;;;15.13;9.60;;;;;;;10.36;94.60;144803.53;1834968;77;22206;-60
2021/09/28 05:57:04;;;;;;;15.75;9.68;;;;;;;10.37;93.88;144804.78;1834961;77;22180;-67
2021/09/28 05:59:58;;;;;;;19.07;8.98;;;;;;;10.57;93.39;144854.94;1834943;77;22129;-65
2021/09/28 06:02:33;;;;;;;16.45;9.40;;;;;;;10.58;91.97;144857.47;1834961;77;22125;-60
2021/09/28 06:05:36;;;;;;;15.85;9.85;;;;;;;10.55;91.49;144849.91;1834087;77;22202;-64
2021/09/28 06:08:30;;;;;;;18.87;11.50;;;;;;;10.60;90.81;144862.45;1834951;77;22606;-64
2021/09/28 06:11:24;;;;;;;16.55;10.80;;;;;;;10.61;90.00;144863.75;1853466;77;22160;-61
2021/09/28 06:13:59;;;;;;;17.57;10.10;;;;;;;10.50;89.75;144837.38;1853559;77;22147;-61
2021/09/28 06:16:34;;;;;;;20.23;10.88;;;;;;;10.52;89.73;144841.16;1815883;79;22570;-63
2021/09/28 06:19:09;;;;;;;22.37;12.05;;;;;;;10.62;89.78;144866.23;1834969;77;22132;-62
2021/09/28 06:21:44;;;;;;;22.93;11.93;;;;;;;10.79;89.35;144907.64;1853558;77;22158;-60
2021/09/28 06:24:19;;;;;;;26.12;11.73;;;;;;;10.86;88.85;144926.45;1853565;77;22543;-65
2021/09/28 06:27:13;;;;;;;21.23;11.20;;;;;;;11.10;88.38;144982.92;1853529;77;22127;-61
2021/09/28 06:29:54;;;;;;;20.00;10.78;;;;;;;11.49;87.28;145080.77;1853514;77;22586;-60
2021/09/28 06:32:30;;;;;;;23.90;9.45;;;;;;;11.70;86.14;145130.98;1834751;77;22152;-58
2021/09/28 06:35:07;;;;;;;23.70;11.10;;;;;;;11.84;85.31;145166.16;1853636;77;22124;-64
2021/09/28 06:38:03;;;;;;;22.98;10.28;;;;;;;11.97;84.95;145196.34;1834929;77;22136;-60
2021/09/28 06:40:58;;;;;;;22.42;11.10;;;;;;;12.10;84.50;145228.97;1834902;77;22132;-66
2021/09/28 06:43:33;;;;;;;16.30;10.48;;;;;;;12.20;83.39;145252.84;1834965;77;22133;-63
2021/09/28 06:46:07;;;;;;;18.15;10.53;;;;;;;12.27;83.46;145271.69;1834944;77;22132;-67
2021/09/28 06:49:02;;;;;;;16.15;9.95;;;;;;;12.42;82.73;145308.11;1829801;77;22585;-61
2021/09/28 06:51:37;;;;;;;17.32;10.90;;;;;;;12.48;81.75;145323.17;1834960;77;22555;-64
2021/09/28 06:54:13;;;;;;;17.62;9.65;;;;;;;12.46;81.29;145318.14;1834668;77;22235;-62
2021/09/28 06:56:47;;;;;;;17.73;10.58;;;;;;;12.52;81.20;145332.00;1834991;77;22124;-65
2021/09/28 06:59:22;;;;;;;19.67;11.08;;;;;;;12.62;80.43;145357.11;1835024;77;22558;-62
2021/09/28 07:01:57;;;;;;;18.85;10.32;;;;;;;12.66;80.44;145365.89;1834947;77;22129;-58
2021/09/28 07:04:38;;;;;;;15.93;9.98;;;;;;;12.85;80.31;145413.66;1834122;77;22124;-57
2021/09/28 07:07:12;;;;;;;14.10;9.33;;;;;;;12.92;79.63;145431.20;1835042;77;22551;-62
2021/09/28 07:09:48;;;;;;;14.07;9.93;;;;;;;12.92;78.94;145429.95;1837762;77;28095;-66
2021/09/28 07:12:23;;;;;;;17.98;9.98;;;;;;;12.89;78.78;145422.42;1835015;77;22129;-62
2021/09/28 07:14:58;;;;;;;17.12;9.15;;;;;;;12.81;78.62;145403.58;1834977;77;22129;-61
2021/09/28 07:17:33;;;;;;;20.88;10.18;;;;;;;12.74;78.78;145387.22;1835090;77;22121;-64
2021/09/28 07:20:10;;;;;;;18.32;10.85;;;;;;;12.71;79.08;145379.69;1819369;77;27977;-63
2021/09/28 07:22:45;;;;;;;17.15;9.93;;;;;;;12.83;79.26;145407.37;1834983;77;22128;-61
2021/09/28 07:25:20;;;;;;;20.20;9.98;;;;;;;12.89;78.87;145423.67;1835014;77;22128;-64
2021/09/28 07:27:58;;;;;;;18.25;9.55;;;;;;;12.94;78.09;145434.98;1834806;77;22603;-60
2021/09/28 07:30:35;;;;;;;19.67;9.85;;;;;;;12.95;77.94;145437.48;1834792;77;22152;-63
2021/09/28 07:33:10;;;;;;;18.80;9.65;;;;;;;13.02;78.00;145455.08;1835011;77;20214;-58
2021/09/28 07:35:47;;;;;;;19.00;9.70;;;;;;;13.09;77.67;145471.44;1834996;77;22125;-60
2021/09/28 07:38:42;;;;;;;15.30;8.95;;;;;;;13.19;77.83;145496.58;1853475;77;22582;-59
2021/09/28 07:41:17;;;;;;;17.48;7.80;;;;;;;13.37;77.32;145540.61;1853547;77;22136;-62
2021/09/28 07:43:53;;;;;;;13.80;7.95;;;;;;;13.38;76.11;145544.41;1853534;77;22188;-64
2021/09/28 07:46:28;;;;;;;17.98;9.28;;;;;;;13.31;75.52;145525.55;1834993;77;22161;-61
2021/09/28 07:49:03;;;;;;;17.90;7.75;;;;;;;13.15;75.83;145487.80;1834957;77;22124;-60
2021/09/28 07:51:44;;;;;;;16.00;7.55;;;;;;;13.06;76.37;145463.91;1834144;77;22599;-63
2021/09/28 07:54:20;;;;;;;16.27;8.40;;;;;;;13.06;75.78;145465.16;1819591;77;27965;-64
2021/09/28 07:57:14;;;;;;;14.78;8.35;;;;;;;13.12;75.83;145480.22;1853941;77;22205;-59
2021/09/28 07:59:51;;;;;;;19.65;8.05;;;;;;;13.21;75.80;145502.86;1835328;77;22151;-60
2021/09/28 08:02:51;;;;;;;14.20;7.25;;;;;;;13.35;75.27;145536.83;1834941;77;22132;-62
2021/09/28 08:05:26;;;;;;;16.60;8.28;;;;;;;13.44;74.65;145559.47;1819405;77;27996;-65
2021/09/28 08:08:05;;;;;;;19.42;7.92;;;;;;;13.58;73.91;145593.39;1834973;77;22125;-60
2021/09/28 08:11:02;;;;;;;14.15;7.67;;;;;;;13.67;73.58;145616.03;1834796;77;22168;-61
2021/09/28 08:13:57;;;;;;;15.25;6.60;;;;;;;13.80;73.34;145646.22;1853543;77;22570;-64
2021/09/28 08:16:33;;;;;;;14.35;7.53;;;;;;;13.90;71.81;145671.37;1853569;77;22127;-62
2021/09/28 08:19:08;;;;;;;13.55;7.08;;;;;;;13.96;71.59;145686.44;1834979;77;22173;-61
2021/09/28 08:21:44;;;;;;;14.38;6.85;;;;;;;14.10;70.97;145721.67;1834946;77;22152;-61
2021/09/28 08:24:20;;;;;;;16.62;6.50;;;;;;;14.33;70.66;145777.03;1834767;77;22570;-65
2021/09/28 08:29:56;;;;;;;13.83;6.17;;;;;;;14.79;67.94;145890.31;1834181;77;22292;-61
2021/09/28 08:32:51;;;;;;;14.25;7.15;;;;;;;14.86;67.97;145906.69;1819333;77;38309;-64
2021/09/28 08:35:45;;;;;;;14.98;6.90;;;;;;;15.05;67.38;145954.47;1834978;77;22548;-69
2021/09/28 08:38:20;;;;;;;11.53;6.10;;;;;;;15.21;67.00;145993.48;1834966;77;22124;-61
2021/09/28 08:40:59;;;;;;;13.90;6.47;;;;;;;15.49;66.46;146062.72;1843357;77;22242;-63
2021/09/28 08:43:35;;;;;;;17.87;6.92;;;;;;;15.69;64.57;146111.89;1834954;77;22608;-62
2021/09/28 08:46:12;;;;;;;24.20;6.50;;;;;;;15.64;63.45;146100.50;1853540;77;22582;-60
2021/09/28 08:49:06;;;;;;;13.30;5.83;;;;;;;15.71;63.29;146115.69;1834979;77;22136;-66
2021/09/28 08:52:03;;;;;;;13.00;6.25;;;;;;;15.88;61.48;146158.50;1853540;77;22127;-63
2021/09/28 08:54:57;;;;;;;13.80;6.12;;;;;;;15.81;61.58;146142.13;1834969;77;22171;-64
2021/09/28 08:57:32;;;;;;;15.90;6.87;;;;;;;15.86;61.91;146153.47;1819435;77;27971;-60
2021/09/28 09:00:26;;;;;;;15.75;6.65;;;;;;;15.68;62.39;146108.09;1834898;77;22159;-62
2021/09/28 09:03:03;;;;;;;14.10;6.92;;;;;;;15.53;63.28;146072.81;1834803;77;22151;-60
2021/09/28 09:05:47;;;;;;;14.93;6.95;;;;;;;15.73;63.50;146121.98;1819350;77;27999;-66
2021/09/28 09:08:34;;;;;;;14.18;6.42;;;;;;;15.74;63.15;146124.47;1834057;77;22242;-64
2021/09/28 09:11:12;;;;;;;16.30;5.87;;;;;;;15.81;63.14;146140.88;1835020;77;22124;-59
2021/09/28 09:14:22;;;;;;;21.75;6.08;;;;;;;15.51;62.09;146066.52;1834985;77;22566;-61
2021/09/28 09:17:23;;;;;;;13.62;6.50;;;;;;;15.30;62.36;146016.16;1834859;77;22176;-64
2021/09/28 09:20:25;;;;;;;25.82;7.05;;;;;;;15.33;62.59;146022.47;1835022;77;22133;-64
2021/09/28 09:23:27;;;;;;;15.75;6.45;;;;;;;15.37;62.85;146033.80;1834952;77;22152;-65
2021/09/28 09:26:18;;;;;;;16.82;6.65;;;;;;;15.31;62.65;146017.41;1819339;77;28429;-64
2021/09/28 09:29:14;;;;;;;14.87;6.05;;;;;;;15.02;63.25;145946.94;1853568;77;22574;-62
2021/09/28 09:32:09;;;;;;;20.05;6.20;;;;;;;15.04;63.35;145951.98;1835014;77;22129;-64
2021/09/28 09:34:51;;;;;;;21.40;6.72;;;;;;;14.95;63.10;145930.56;1853593;77;20202;-57
2021/09/28 09:37:32;;;;;;;21.50;5.85;;;;;;;14.89;63.36;145914.22;1835002;77;22133;-66
2021/09/28 09:40:09;;;;;;;20.70;7.12;;;;;;;14.79;63.74;145889.06;1853521;77;22124;-62
2021/09/28 09:43:04;;;;;;;20.92;6.30;;;;;;;14.68;64.25;145862.59;1853520;77;22199;-63
2021/09/28 09:45:39;;;;;;;20.05;6.97;;;;;;;14.73;64.53;145875.19;1819434;77;27963;-61
2021/09/28 09:48:29;;;;;;;22.40;6.30;;;;;;;14.56;64.99;145832.44;1853546;77;22123;-67
2021/09/28 09:51:24;;;;;;;16.57;5.95;;;;;;;14.46;65.76;145809.72;1853490;77;22160;-61
2021/09/28 09:54:33;;;;;;;22.07;6.92;;;;;;;14.58;65.72;145838.72;1834946;77;22164;-64
2021/09/28 09:57:26;;;;;;;17.25;6.53;;;;;;;14.70;65.41;145867.64;1834990;77;22113;-66
2021/09/28 10:00:01;;;;;;;20.65;5.97;;;;;;;14.84;64.89;145902.89;1835031;77;22132;-57
2021/09/28 10:02:36;;;;;;;19.60;6.45;;;;;;;15.00;63.90;145940.64;1853585;77;22151;-64
2021/09/28 10:05:11;;;;;;;21.12;6.42;;;;;;;15.18;64.16;145985.94;1835153;77;22168;-66
2021/09/28 10:07:50;;;;;;;23.47;6.47;;;;;;;15.26;62.80;146006.08;1853562;77;22124;-63
2021/09/28 10:10:47;;;;;;;24.30;5.83;;;;;;;15.16;61.89;145980.91;1853692;77;22127;-67
2021/09/28 10:13:54;;;;;;;25.37;6.22;;;;;;;14.84;62.77;145901.64;1835012;77;22159;-65
2021/09/28 10:16:52;;;;;;;24.63;7.87;;;;;;;14.62;64.06;145847.52;1837788;77;27977;-65
2021/09/28 10:19:51;;;;;;;20.23;6.65;;;;;;;14.62;64.66;145847.52;1834996;77;22210;-64
2021/09/28 10:23:15;;;;;;;22.22;7.17;;;;;;;14.61;64.70;145845.02;1853520;77;22135;-67
2021/09/28 10:26:02;;;;;;;27.15;6.30;;;;;;;14.58;64.52;145837.44;1834102;77;22588;-62
2021/09/28 10:28:56;;;;;;;22.35;5.42;;;;;;;14.45;64.52;145807.22;1834916;77;22136;-65
2021/09/28 10:31:31;;;;;;;25.05;6.37;;;;;;;14.38;65.17;145789.61;1835051;77;22120;-66
2021/09/28 10:34:36;;;;;;;18.73;5.42;;;;;;;14.37;65.14;145787.06;1853512;77;22132;-60
2021/09/28 10:37:11;;;;;;;21.57;5.58;;;;;;;14.25;65.71;145756.91;1834886;77;22187;-61
2021/09/28 10:39:48;;;;;;;18.17;5.85;;;;;;;14.18;65.66;145739.30;1834747;77;22128;-63
2021/09/28 10:42:54;;;;;;;20.20;6.25;;;;;;;14.01;65.88;145697.78;1834934;77;22125;-63
2021/09/28 10:45:36;;;;;;;23.67;6.12;;;;;;;13.83;66.49;145653.77;1834919;77;22547;-67
2021/09/28 10:48:34;;;;;;;27.37;6.80;;;;;;;13.67;67.44;145614.80;1834967;77;22136;-61
2021/09/28 10:51:27;;;;;;;26.05;6.53;;;;;;;13.54;68.14;145583.36;1834924;77;22164;-62
2021/09/28 10:54:22;;;;;;;21.77;7.28;;;;;;;13.47;68.95;145565.75;1834826;77;22578;-62
2021/09/28 10:56:57;;;;;;;20.10;6.30;;;;;;;13.42;69.31;145553.19;1834977;77;22128;-63
2021/09/28 11:00:00;;;;;;;23.02;6.15;;;;;;;13.30;69.82;145524.25;1834967;77;22136;-62
2021/09/28 11:02:57;;;;;;;20.62;6.35;;;;;;;13.11;70.79;145477.72;1834968;77;22563;-62
2021/09/28 11:05:56;;;;;;;23.30;7.08;;;;;;;12.97;71.79;145442.52;1835039;77;22136;-68
2021/09/28 11:08:35;;;;;;;24.75;6.40;;;;;;;12.98;72.21;145446.31;1835000;77;22125;-64
2021/09/28 11:11:27;;;;;;;21.10;5.45;;;;;;;13.05;72.50;145462.63;1834990;77;22125;-61
2021/09/28 11:14:06;;;;;;;22.55;7.58;;;;;;;13.09;72.59;145471.44;1837807;77;38294;-59
2021/09/28 11:17:01;;;;;;;23.25;6.45;;;;;;;13.12;72.89;145480.22;1800780;79;22152;-62
2021/09/28 11:19:55;;;;;;;20.27;6.65;;;;;;;13.08;72.91;145468.91;1834919;77;22558;-61
2021/09/28 11:22:35;;;;;;;24.87;6.65;;;;;;;13.02;73.10;145456.33;1853506;77;22180;-61
2021/09/28 11:25:15;;;;;;;24.23;8.03;;;;;;;13.01;73.36;145452.59;1853561;77;22127;-61
2021/09/28 11:28:16;;;;;;;29.07;7.42;;;;;;;12.92;73.64;145429.95;1853591;77;22128;-61
2021/09/28 11:31:11;;;;;;;24.35;7.00;;;;;;;12.84;74.08;145409.86;1853516;77;22136;-65
2021/09/28 11:34:07;;;;;;;20.55;7.20;;;;;;;12.88;74.20;145419.94;1834875;77;22155;-59
2021/09/28 11:37:04;;;;;;;23.02;6.12;;;;;;;12.91;74.43;145427.47;1834846;77;22578;-65
2021/09/28 11:39:58;;;;;;;32.42;7.60;;;;;;;12.97;74.46;145442.52;1835033;77;22128;-58
2021/09/28 11:42:53;;;;;;;26.10;5.80;;;;;;;13.11;74.47;145477.72;1835483;77;22136;-67
2021/09/28 11:45:29;;;;;;;22.75;5.70;;;;;;;13.28;73.98;145517.97;1835486;77;22551;-60
2021/09/28 11:48:04;;;;;;;21.77;5.87;;;;;;;13.37;73.25;145540.61;1853582;77;20210;-62
2021/09/28 11:50:39;;;;;;;29.18;6.65;;;;;;;13.43;73.10;145555.69;1834982;77;22124;-59
2021/09/28 12:10:44;;;;;;;27.35;7.03;;;;;;;13.40;71.98;145548.16;1793227;80;21103;-61
2021/09/28 12:27:06;;;;;;;27.98;7.55;;;;;;;13.24;75.29;145509.14;1793585;79;21257;-59
2021/09/28 12:29:47;;;;;;;22.52;7.08;;;;;;;13.28;75.71;145517.97;1835055;77;22151;-64
2021/09/28 12:32:32;;;;;;;25.95;6.65;;;;;;;13.25;75.06;145512.94;1835100;77;22129;-61
2021/09/28 12:35:34;;;;;;;19.65;6.35;;;;;;;13.25;75.31;145511.64;1834939;77;22156;-60
2021/09/28 12:38:28;;;;;;;25.75;8.50;;;;;;;13.28;75.06;145519.27;1835104;77;22539;-64
2021/09/28 12:41:22;;;;;;;20.77;6.85;;;;;;;13.29;74.83;145520.52;1853541;77;22123;-65
2021/09/28 12:43:57;;;;;;;22.58;6.45;;;;;;;13.31;74.27;145526.80;1835031;77;22124;-61
2021/09/28 12:46:52;;;;;;;19.45;6.05;;;;;;;13.29;73.61;145521.75;1834805;77;22204;-64
2021/09/28 12:49:32;;;;;;;18.75;6.17;;;;;;;13.36;73.13;145538.12;1835021;77;22140;-63
2021/09/28 12:52:07;;;;;;;20.43;7.17;;;;;;;13.45;72.84;145561.97;1835011;77;22125;-66
2021/09/28 12:55:01;;;;;;;20.20;7.15;;;;;;;13.54;72.88;145583.36;1834981;77;22218;-60
2021/09/28 12:57:56;;;;;;;17.67;6.35;;;;;;;13.54;71.89;145583.36;1835110;77;22168;-60
2021/09/28 13:00:53;;;;;;;17.27;6.17;;;;;;;13.51;71.67;145575.83;1834865;77;22181;-64
2021/09/28 13:03:30;;;;;;;31.07;6.92;;;;;;;13.56;71.31;145587.11;1853596;77;22550;-66
2021/09/28 13:06:09;;;;;;;22.07;6.72;;;;;;;13.60;71.17;145598.42;1834997;77;22124;-59
2021/09/28 13:08:44;;;;;;;20.97;6.97;;;;;;;13.61;70.95;145600.97;1853562;77;22172;-65